Time;durP1;ratioP1;P1;durP2;ratioP2;P2;SDS_P1;SDS_P2;PMS_P1;PMS_P2;Temp;Humidity;BMP_temperature;BMP_pressure;BME280_temperature;BME280_humidity;BME280_pressure;Samples;Min_cycle;Max_cycle;Signal;HPM_P1;HPM_P2
2022/12/05 00:22:45;;;;;;;15.48;6.22;;;;;;;-6.32;65.45;101401.24;1822988;78;22665;-38
2022/12/05 00:25:13;;;;;;;10.28;5.28;;;;;;;-6.20;64.29;101400.48;1791577;79;21002;-37
2022/12/05 00:27:41;;;;;;;11.33;5.37;;;;;;;-6.15;63.74;101401.20;1797666;79;21231;-38
2022/12/05 00:30:10;;;;;;;12.33;5.12;;;;;;;-6.10;63.13;101402.73;1784289;80;20972;-37
2022/12/05 00:32:36;;;;;;;15.78;4.97;;;;;;;-6.06;62.77;101404.46;1784406;79;20958;-37
2022/12/05 00:35:04;;;;;;;11.75;5.10;;;;;;;-6.07;62.68;101401.00;1784583;79;21561;-37
2022/12/05 00:37:31;;;;;;;14.20;5.03;;;;;;;-6.03;62.57;101408.01;1784296;80;21032;-37
2022/12/05 00:39:58;;;;;;;15.83;5.08;;;;;;;-6.02;62.08;101401.22;1784574;80;21246;-37
2022/12/05 00:42:26;;;;;;;9.45;4.47;;;;;;;-6.03;62.04;101408.83;1784053;80;21530;-37
2022/12/05 00:44:53;;;;;;;12.55;4.95;;;;;;;-5.99;62.04;101411.88;1784392;79;21550;-37
2022/12/05 00:47:19;;;;;;;12.53;4.60;;;;;;;-5.96;61.80;101408.84;1784236;79;21021;-37
2022/12/05 00:49:46;;;;;;;11.38;5.00;;;;;;;-5.91;61.61;101409.87;1784284;80;20970;-37
2022/12/05 00:52:13;;;;;;;12.98;5.25;;;;;;;-5.85;61.33;101404.23;1784370;80;21218;-37
2022/12/05 00:54:40;;;;;;;10.72;4.92;;;;;;;-5.86;61.33;101396.84;1784376;80;20982;-37
2022/12/05 00:57:07;;;;;;;15.15;5.53;;;;;;;-5.82;61.08;101399.39;1784455;80;21526;-38
2022/12/05 00:59:34;;;;;;;14.20;5.37;;;;;;;-5.80;60.94;101388.59;1784534;80;21499;-38
2022/12/05 01:02:01;;;;;;;10.93;4.75;;;;;;;-5.83;60.73;101387.19;1784240;80;21029;-38
2022/12/05 01:04:27;;;;;;;16.12;5.17;;;;;;;-5.81;60.54;101389.64;1784422;80;21390;-37
2022/12/05 01:06:56;;;;;;;14.87;6.00;;;;;;;-5.78;60.46;101384.76;1784388;80;20906;-37
2022/12/05 01:09:22;;;;;;;11.68;5.20;;;;;;;-5.78;60.42;101380.80;1784262;80;21005;-38
2022/12/05 01:11:49;;;;;;;13.22;5.20;;;;;;;-5.79;60.22;101383.13;1784277;79;21088;-37
2022/12/05 01:14:18;;;;;;;19.07;5.65;;;;;;;-5.80;60.22;101382.81;1784561;80;20960;-37
2022/12/05 01:16:46;;;;;;;10.43;5.35;;;;;;;-5.85;60.37;101369.91;1784449;80;21259;-38
2022/12/05 01:19:27;;;;;;;10.50;5.00;;;;;;;-5.83;60.30;101369.20;1784585;80;22056;-37
2022/12/05 01:21:54;;;;;;;13.35;4.67;;;;;;;-5.85;60.23;101362.80;1786318;79;21482;-38
2022/12/05 01:24:22;;;;;;;10.95;4.83;;;;;;;-5.91;60.35;101367.62;1787885;79;20929;-37
2022/12/05 01:26:48;;;;;;;15.53;5.83;;;;;;;-5.89;60.37;101364.76;1788201;80;21076;-37
2022/12/05 01:29:17;;;;;;;11.50;5.37;;;;;;;-5.89;60.30;101363.44;1787806;80;21229;-37
2022/12/05 01:31:44;;;;;;;10.03;5.05;;;;;;;-5.88;60.43;101355.83;1787950;80;20886;-38
2022/12/05 01:34:13;;;;;;;17.02;5.30;;;;;;;-5.83;60.12;101355.50;1787400;80;21518;-37
2022/12/05 01:36:40;;;;;;;12.27;5.10;;;;;;;-5.81;59.98;101362.69;1787417;80;21025;-37
2022/12/05 01:39:08;;;;;;;11.10;4.95;;;;;;;-5.85;59.97;101356.20;1787200;79;21013;-37
2022/12/05 01:41:38;;;;;;;13.93;5.33;;;;;;;-5.83;59.93;101356.81;1787382;80;21221;-37
2022/12/05 01:44:16;;;;;;;14.15;4.90;;;;;;;-5.81;59.74;101357.41;1787272;79;20925;-38
2022/12/05 01:46:49;;;;;;;17.52;5.70;;;;;;;-5.87;59.78;101351.67;1785408;80;20961;-37
2022/12/05 01:49:32;;;;;;;13.03;5.67;;;;;;;-5.87;59.63;101351.67;1787082;79;21008;-38
2022/12/05 01:52:03;;;;;;;13.95;5.25;;;;;;;-5.88;59.67;101359.28;1787242;79;20957;-37
2022/12/05 01:54:30;;;;;;;12.43;5.45;;;;;;;-5.88;59.74;101352.68;1786991;79;21131;-37
2022/12/05 01:57:01;;;;;;;15.32;5.55;;;;;;;-5.83;59.52;101354.17;1786995;79;20941;-37
2022/12/05 01:59:33;;;;;;;12.90;5.33;;;;;;;-5.83;59.50;101358.64;1786829;80;21517;-37
2022/12/05 02:02:00;;;;;;;17.12;5.45;;;;;;;-5.88;59.57;101363.75;1787059;80;20972;-37
2022/12/05 02:04:27;;;;;;;15.60;5.33;;;;;;;-5.85;59.56;101359.34;1787121;80;21068;-37
2022/12/05 02:06:54;;;;;;;11.80;5.45;;;;;;;-5.86;59.55;101361.20;1793398;79;21315;-37
2022/12/05 02:09:21;;;;;;;17.32;5.72;;;;;;;-5.83;59.34;101363.42;1786823;80;20914;-37
2022/12/05 02:12:00;;;;;;;13.50;5.60;;;;;;;-5.84;59.29;101368.39;1786994;79;20949;-37
2022/12/05 02:15:13;;;;;;;13.53;5.65;;;;;;;-5.89;59.31;101372.17;1787124;80;21001;-38
2022/12/05 02:17:57;;;;;;;16.95;6.30;;;;;;;-5.88;59.22;101368.53;1787170;79;21021;-38
2022/12/05 02:21:06;;;;;;;14.43;5.53;;;;;;;-5.93;59.31;101365.67;1786870;80;21230;-38
2022/12/05 02:23:59;;;;;;;17.57;6.65;;;;;;;-5.94;59.32;101365.37;1787152;79;27142;-38
2022/12/05 02:26:31;;;;;;;12.25;5.55;;;;;;;-6.02;59.42;101366.89;1786811;80;20956;-37
2022/12/05 02:29:10;;;;;;;11.65;5.03;;;;;;;-6.10;59.54;101366.28;1787059;80;21000;-38
2022/12/05 02:31:55;;;;;;;14.73;4.75;;;;;;;-6.11;59.53;101364.65;1787542;79;21007;-38
2022/12/05 02:34:56;;;;;;;13.30;5.10;;;;;;;-6.12;59.56;101365.66;1786995;79;21259;-38
2022/12/05 02:37:43;;;;;;;12.58;5.78;;;;;;;-6.20;59.67;101369.31;1787173;79;21530;-37
2022/12/05 02:40:24;;;;;;;14.03;5.37;;;;;;;-6.26;59.80;101357.72;1778968;79;21564;-38
2022/12/05 02:43:05;;;;;;;16.65;6.03;;;;;;;-6.23;59.78;101360.45;1786152;80;21482;-37
2022/12/05 02:45:34;;;;;;;14.65;5.28;;;;;;;-6.21;59.80;101365.04;1787121;80;20882;-38
2022/12/05 02:48:00;;;;;;;17.00;5.75;;;;;;;-6.18;59.68;101367.27;1787267;79;21190;-37
2022/12/05 02:50:32;;;;;;;14.73;5.28;;;;;;;-6.18;59.78;101357.52;1787514;80;20999;-39
2022/12/05 02:53:04;;;;;;;15.30;5.92;;;;;;;-6.13;59.69;101363.52;1767710;80;20957;-40
2022/12/05 02:55:30;;;;;;;15.93;5.87;;;;;;;-6.15;59.59;101361.61;1786937;80;21087;-40
2022/12/05 02:58:00;;;;;;;13.83;5.70;;;;;;;-6.20;59.66;101354.29;1767357;80;21478;-40
2022/12/05 03:00:26;;;;;;;18.48;5.65;;;;;;;-6.17;59.63;101358.34;1787380;80;21796;-40
2022/12/05 03:02:58;;;;;;;13.98;6.08;;;;;;;-6.17;59.49;101353.06;1786825;80;20984;-40
2022/12/05 03:05:52;;;;;;;12.43;5.97;;;;;;;-6.26;59.72;101356.91;1787315;80;20961;-40
2022/12/05 03:08:22;;;;;;;13.35;5.62;;;;;;;-6.29;59.82;101354.64;1786847;79;21573;-40
2022/12/05 03:10:49;;;;;;;17.45;5.33;;;;;;;-6.31;59.98;101360.65;1787063;80;21507;-40
2022/12/05 03:13:30;;;;;;;16.52;6.05;;;;;;;-6.28;59.97;101358.92;1787002;80;21040;-40
2022/12/05 03:16:01;;;;;;;11.68;5.53;;;;;;;-6.25;59.88;101363.81;1787204;80;21514;-40
2022/12/05 03:18:31;;;;;;;17.10;5.50;;;;;;;-6.27;59.90;101363.19;1787058;80;21076;-37
2022/12/05 03:21:09;;;;;;;13.43;5.53;;;;;;;-6.33;59.98;101358.70;1787175;80;21510;-38
2022/12/05 03:23:40;;;;;;;13.80;6.00;;;;;;;-6.33;59.98;101359.52;1787069;79;20977;-38
2022/12/05 03:26:19;;;;;;;10.90;5.47;;;;;;;-6.33;60.01;101357.38;1787001;79;21280;-38
2022/12/05 03:29:27;;;;;;;21.00;6.47;;;;;;;-6.38;60.11;101359.30;1787031;80;20949;-38
2022/12/05 03:32:03;;;;;;;19.07;7.40;;;;;;;-6.41;60.15;101350.48;1787273;80;21099;-38
2022/12/05 03:34:53;;;;;;;12.10;7.00;;;;;;;-6.46;60.23;101345.49;1786865;79;20894;-38
2022/12/05 03:37:52;;;;;;;16.15;7.40;;;;;;;-6.43;60.32;101351.67;1787114;80;21045;-38
2022/12/05 03:40:49;;;;;;;14.25;6.45;;;;;;;-6.49;60.43;101353.31;1763497;80;22121;-38
2022/12/05 03:43:45;;;;;;;13.60;6.08;;;;;;;-6.51;60.51;101354.00;1786907;80;21613;-38
2022/12/05 03:46:23;;;;;;;11.85;5.25;;;;;;;-6.51;60.50;101356.64;1787218;79;20981;-38
2022/12/05 03:49:13;;;;;;;15.50;6.10;;;;;;;-6.55;60.45;101351.96;1765011;80;20886;-39
2022/12/05 03:51:44;;;;;;;19.20;7.22;;;;;;;-6.60;60.66;101353.38;1787426;80;20998;-38
2022/12/05 03:54:17;;;;;;;14.63;6.70;;;;;;;-6.58;60.62;101345.78;1786944;80;21240;-39
2022/12/05 03:57:04;;;;;;;14.45;7.25;;;;;;;-6.59;60.61;101344.95;1786860;80;20965;-39
2022/12/05 03:59:44;;;;;;;14.90;7.12;;;;;;;-6.61;60.67;101345.15;1771897;79;20973;-39
2022/12/05 04:02:19;;;;;;;18.27;7.83;;;;;;;-6.58;60.65;101343.92;1786773;80;20910;-38
2022/12/05 04:04:52;;;;;;;15.95;7.47;;;;;;;-6.53;60.60;101344.67;1786693;80;21033;-39
2022/12/05 04:07:18;;;;;;;13.68;6.75;;;;;;;-6.51;60.56;101337.36;1787023;80;21844;-39
2022/12/05 04:09:49;;;;;;;14.35;6.10;;;;;;;-6.53;60.50;101340.72;1767184;80;20964;-38
2022/12/05 04:12:23;;;;;;;15.35;6.10;;;;;;;-6.52;60.35;101336.54;1786960;79;20964;-39
2022/12/05 04:14:59;;;;;;;16.50;7.00;;;;;;;-6.50;60.37;101341.63;1786920;80;21001;-39
2022/12/05 04:17:52;;;;;;;16.45;6.37;;;;;;;-6.54;60.38;101337.77;1787005;80;20970;-38
2022/12/05 04:23:25;;;;;;;12.35;6.12;;;;;;;-6.45;60.35;101337.38;1788658;80;20933;-39
2022/12/05 04:26:00;;;;;;;14.95;5.55;;;;;;;-6.36;60.27;101342.78;1789401;80;20964;-38
2022/12/05 04:28:57;;;;;;;11.63;5.85;;;;;;;-6.32;60.06;101338.72;1789519;80;21008;-39
2022/12/05 04:31:28;;;;;;;12.50;5.87;;;;;;;-6.25;59.88;101334.78;1789037;79;21041;-39
2022/12/05 04:33:59;;;;;;;16.70;6.37;;;;;;;-6.26;59.62;101327.88;1789540;79;21139;-39
2022/12/05 04:36:44;;;;;;;16.07;5.65;;;;;;;-6.31;59.66;101331.12;1789487;80;21000;-39
2022/12/05 04:39:22;;;;;;;17.37;6.78;;;;;;;-6.29;59.59;101329.58;1789655;80;20977;-39
2022/12/05 04:42:02;;;;;;;20.48;10.18;;;;;;;-6.27;59.56;101328.87;1789639;80;20961;-38
2022/12/05 04:44:36;;;;;;;16.42;6.15;;;;;;;-6.32;59.68;101327.34;1789476;80;21036;-39
2022/12/05 04:47:04;;;;;;;19.27;6.60;;;;;;;-6.38;59.69;101317.59;1789701;80;21137;-39
2022/12/05 04:49:31;;;;;;;12.93;5.60;;;;;;;-6.39;59.62;101318.63;1789911;80;20945;-39
2022/12/05 04:52:03;;;;;;;12.30;5.65;;;;;;;-6.44;59.63;101315.27;1789362;79;21040;-38
2022/12/05 04:54:41;;;;;;;13.35;6.08;;;;;;;-6.47;59.80;101320.92;1789589;79;20961;-38
2022/12/05 04:57:24;;;;;;;13.10;6.12;;;;;;;-6.45;59.88;101316.78;1789362;80;20984;-39
2022/12/05 04:59:51;;;;;;;16.62;5.85;;;;;;;-6.47;59.84;101325.39;1789485;80;21185;-38
2022/12/05 05:02:21;;;;;;;10.82;5.20;;;;;;;-6.55;60.13;101321.63;1789207;80;20949;-39
2022/12/05 05:04:50;;;;;;;13.88;7.45;;;;;;;-6.58;60.26;101320.72;1789732;80;20952;-39
2022/12/05 05:07:17;;;;;;;13.88;6.50;;;;;;;-6.63;60.33;101323.42;1789448;80;20913;-39
2022/12/05 05:09:44;;;;;;;13.30;6.45;;;;;;;-6.62;60.51;101325.05;1789731;80;21028;-38
2022/12/05 05:12:11;;;;;;;13.10;5.90;;;;;;;-6.60;60.52;101325.68;1795916;79;21088;-38
2022/12/05 05:14:38;;;;;;;12.95;6.53;;;;;;;-6.61;60.60;101325.36;1789624;80;20976;-38
2022/12/05 05:17:05;;;;;;;11.83;6.00;;;;;;;-6.58;60.54;101322.82;1789864;79;20926;-38
2022/12/05 05:19:32;;;;;;;11.25;5.80;;;;;;;-6.61;60.64;101329.32;1789917;79;21005;-38
2022/12/05 05:21:59;;;;;;;15.25;6.65;;;;;;;-6.66;60.83;101330.42;1789926;79;21024;-38
2022/12/05 05:24:26;;;;;;;22.07;7.90;;;;;;;-6.64;60.77;101331.05;1789751;79;21307;-38
2022/12/05 05:26:53;;;;;;;15.68;6.22;;;;;;;-6.63;60.66;101327.38;1789677;79;20909;-38
2022/12/05 05:29:20;;;;;;;15.50;7.03;;;;;;;-6.67;60.83;101330.11;1789807;79;21757;-38
2022/12/05 05:31:47;;;;;;;14.07;6.60;;;;;;;-6.66;60.86;101329.10;1789761;79;21510;-38
2022/12/05 05:34:15;;;;;;;13.72;6.58;;;;;;;-6.68;60.99;101331.11;1789607;79;21083;-38
2022/12/05 05:36:41;;;;;;;12.53;5.72;;;;;;;-6.72;61.00;101333.84;1789718;80;21510;-38
2022/12/05 05:39:12;;;;;;;9.78;5.17;;;;;;;-6.70;61.03;101342.38;1789412;80;21463;-38
2022/12/05 05:41:39;;;;;;;12.90;6.22;;;;;;;-6.68;61.16;101344.83;1789545;80;21150;-39
2022/12/05 05:44:05;;;;;;;16.77;6.17;;;;;;;-6.71;61.24;101349.16;1789480;79;21007;-38
2022/12/05 05:46:34;;;;;;;12.58;5.75;;;;;;;-6.72;61.19;101349.67;1789579;80;21110;-38
2022/12/05 05:49:00;;;;;;;15.83;6.75;;;;;;;-6.75;61.31;101353.21;1789672;80;21221;-38
2022/12/05 05:51:29;;;;;;;11.50;5.60;;;;;;;-6.77;61.56;101359.17;1789570;79;21616;-38
2022/12/05 05:53:56;;;;;;;15.43;5.85;;;;;;;-6.77;61.64;101354.72;1789774;80;20972;-39
2022/12/05 05:56:23;;;;;;;13.08;6.40;;;;;;;-6.79;61.78;101367.81;1789519;79;21021;-38
2022/12/05 05:58:59;;;;;;;10.00;5.87;;;;;;;-6.85;61.89;101360.17;1789696;80;20976;-39
2022/12/05 06:01:26;;;;;;;15.13;6.08;;;;;;;-6.85;62.10;101358.86;1789950;80;21173;-39
2022/12/05 06:03:54;;;;;;;13.38;6.42;;;;;;;-6.91;62.44;101362.27;1789904;80;20921;-38
2022/12/05 06:06:20;;;;;;;16.25;6.83;;;;;;;-6.92;62.62;101359.31;1789495;79;20914;-38
2022/12/05 06:08:47;;;;;;;16.85;7.15;;;;;;;-6.89;62.78;101361.58;1789853;79;20996;-38
2022/12/05 06:11:20;;;;;;;11.50;6.28;;;;;;;-6.91;62.86;101354.36;1790088;80;21036;-38
2022/12/05 06:13:47;;;;;;;11.45;6.47;;;;;;;-6.91;63.01;101356.18;1789831;80;21162;-39
2022/12/05 06:16:16;;;;;;;15.55;7.72;;;;;;;-6.93;63.08;101351.63;1789646;79;21497;-39
2022/12/05 06:18:43;;;;;;;15.15;7.28;;;;;;;-6.94;63.18;101355.27;1789534;80;21287;-38
2022/12/05 06:21:10;;;;;;;13.43;7.15;;;;;;;-6.93;63.20;101347.17;1789412;80;21623;-38
2022/12/05 06:23:38;;;;;;;12.70;6.62;;;;;;;-6.89;63.16;101350.22;1789659;80;21533;-39
2022/12/05 06:26:05;;;;;;;14.43;7.65;;;;;;;-6.92;63.21;101335.59;1789511;80;21240;-38
2022/12/05 06:28:32;;;;;;;16.37;7.35;;;;;;;-6.91;63.32;101333.27;1785899;78;21008;-38
2022/12/05 06:30:59;;;;;;;16.27;7.50;;;;;;;-6.86;63.25;101325.58;1783518;80;21036;-38
2022/12/05 06:33:27;;;;;;;14.90;7.30;;;;;;;-6.90;63.34;101319.08;1783299;80;21064;-38
2022/12/05 06:36:10;;;;;;;19.32;7.97;;;;;;;-6.89;63.33;101316.76;1783343;80;21047;-38
2022/12/05 06:38:37;;;;;;;15.93;7.58;;;;;;;-6.90;63.41;101319.08;1783313;80;21177;-38
2022/12/05 06:41:08;;;;;;;17.52;8.33;;;;;;;-6.92;63.77;101322.41;1783471;80;21524;-38
2022/12/05 06:43:34;;;;;;;19.27;8.73;;;;;;;-6.88;63.82;101317.58;1783594;80;20953;-39
2022/12/05 06:46:06;;;;;;;20.45;9.33;;;;;;;-6.81;63.88;101317.89;1783428;80;21027;-38
2022/12/05 06:48:32;;;;;;;20.45;9.33;;;;;;;-6.76;64.19;101319.43;1783698;80;21431;-39
2022/12/05 06:50:59;;;;;;;24.70;10.23;;;;;;;-6.62;64.28;101312.36;1783625;80;21232;-39
2022/12/05 06:53:26;;;;;;;26.40;10.60;;;;;;;-6.47;64.24;101317.47;1783539;80;21003;-38
2022/12/05 06:56:02;;;;;;;29.92;11.50;;;;;;;-6.35;64.23;101313.25;1783505;80;20991;-38
2022/12/05 06:58:29;;;;;;;26.30;12.88;;;;;;;-6.24;64.04;101313.95;1783453;80;21690;-39
2022/12/05 07:03:46;;;;;;;35.70;13.95;;;;;;;-6.21;64.12;101314.38;1783470;80;21596;-39
2022/12/05 07:06:13;;;;;;;29.48;13.75;;;;;;;-6.12;63.91;101311.03;1783241;80;20956;-38
2022/12/05 07:08:40;;;;;;;33.10;13.95;;;;;;;-6.11;63.99;101307.38;1783640;80;21707;-39
2022/12/05 07:11:07;;;;;;;33.00;14.73;;;;;;;-6.07;64.06;101300.68;1783217;80;21676;-38
2022/12/05 07:13:34;;;;;;;33.63;14.98;;;;;;;-5.97;64.00;101297.13;1783437;80;21044;-38
2022/12/05 07:16:00;;;;;;;34.05;15.05;;;;;;;-5.91;63.93;101311.34;1783508;80;21739;-38
2022/12/05 07:18:27;;;;;;;34.80;15.75;;;;;;;-5.82;63.75;101317.51;1783273;80;21596;-38
2022/12/05 07:21:02;;;;;;;34.78;15.83;;;;;;;-5.70;63.52;101318.50;1777956;80;21035;-38
2022/12/05 07:23:31;;;;;;;37.17;16.20;;;;;;;-5.59;63.34;101325.00;1783257;79;21009;-39
2022/12/05 07:25:57;;;;;;;36.55;16.82;;;;;;;-5.44;63.00;101326.09;1783373;80;21047;-38
2022/12/05 07:28:26;;;;;;;37.23;17.07;;;;;;;-5.31;62.69;101324.73;1783402;80;21212;-39
2022/12/05 07:31:02;;;;;;;34.03;16.80;;;;;;;-5.24;62.51;101317.61;1783286;80;21078;-38
2022/12/05 07:33:29;;;;;;;38.78;17.15;;;;;;;-5.18;62.29;101319.43;1783078;80;20988;-39
2022/12/05 07:36:01;;;;;;;29.92;15.00;;;;;;;-5.08;62.30;101318.45;1783441;80;21051;-38
2022/12/05 07:38:29;;;;;;;34.00;15.90;;;;;;;-4.99;62.26;101319.88;1783468;80;21035;-38
2022/12/05 07:40:56;;;;;;;36.90;16.42;;;;;;;-4.92;61.99;101325.12;1783704;80;22166;-38
2022/12/05 07:43:23;;;;;;;32.05;15.30;;;;;;;-4.88;61.84;101313.91;1783289;80;21047;-38
2022/12/05 07:45:49;;;;;;;36.38;16.73;;;;;;;-4.83;61.84;101315.41;1783563;80;20975;-38
2022/12/05 07:48:16;;;;;;;35.30;16.00;;;;;;;-4.76;62.02;101311.93;1783460;80;20996;-38
2022/12/05 07:50:43;;;;;;;31.77;13.93;;;;;;;-4.71;62.00;101320.05;1783478;80;21028;-39
2022/12/05 07:53:10;;;;;;;30.55;15.90;;;;;;;-4.63;61.66;101322.44;1783250;80;21111;-39
2022/12/05 07:55:38;;;;;;;29.45;14.18;;;;;;;-4.56;61.61;101326.69;1783223;80;20972;-38
2022/12/05 07:58:05;;;;;;;30.82;15.30;;;;;;;-4.47;61.36;101327.25;1783384;80;21005;-38
2022/12/05 08:00:32;;;;;;;36.35;15.40;;;;;;;-4.46;61.35;101326.23;1783333;80;20921;-38
2022/12/05 08:03:01;;;;;;;30.15;15.50;;;;;;;-4.37;61.38;101324.95;1783383;80;22044;-39
2022/12/05 08:05:28;;;;;;;27.17;14.65;;;;;;;-4.28;61.01;101318.37;1754203;80;21574;-39
2022/12/05 08:07:56;;;;;;;26.23;14.63;;;;;;;-4.21;60.84;101321.77;1783315;80;20897;-39
2022/12/05 08:10:22;;;;;;;33.38;14.53;;;;;;;-4.18;60.75;101326.66;1783347;80;21501;-38
2022/12/05 08:12:50;;;;;;;30.25;15.23;;;;;;;-4.18;60.93;101326.66;1783323;80;21036;-39
2022/12/05 08:15:17;;;;;;;28.60;14.58;;;;;;;-4.09;60.86;101328.52;1783359;80;21537;-38
2022/12/05 08:17:46;;;;;;;37.48;17.20;;;;;;;-4.02;60.58;101322.14;1783394;80;21874;-38
2022/12/05 08:20:14;;;;;;;31.57;15.03;;;;;;;-4.00;60.50;101321.93;1783311;80;20937;-39
2022/12/05 08:22:40;;;;;;;34.65;16.50;;;;;;;-3.97;60.14;101328.92;1783190;80;21065;-38
2022/12/05 08:25:09;;;;;;;28.95;15.13;;;;;;;-3.95;60.13;101321.58;1783444;79;21039;-39
2022/12/05 08:27:35;;;;;;;33.23;15.75;;;;;;;-3.86;60.08;101317.33;1783300;80;21055;-39
2022/12/05 08:30:05;;;;;;;33.23;16.60;;;;;;;-3.81;59.89;101320.14;1783283;80;21124;-39
2022/12/05 08:32:31;;;;;;;30.52;16.17;;;;;;;-3.72;60.16;101325.46;1783326;80;20972;-39
2022/12/05 08:34:58;;;;;;;32.25;16.15;;;;;;;-3.57;59.63;101316.66;1783433;80;21089;-39
2022/12/05 08:37:24;;;;;;;27.30;15.08;;;;;;;-3.49;59.73;101301.00;1783435;80;21375;-39
2022/12/05 08:39:51;;;;;;;26.12;14.05;;;;;;;-3.34;59.17;101305.44;1783497;80;21067;-39
2022/12/05 08:42:18;;;;;;;29.67;14.87;;;;;;;-3.22;58.68;101304.98;1783292;80;21229;-39
2022/12/05 08:44:45;;;;;;;27.85;15.53;;;;;;;-3.17;58.34;101313.09;1783477;80;22112;-39
2022/12/05 08:47:12;;;;;;;29.35;14.87;;;;;;;-3.08;58.22;101312.58;1783613;80;20988;-39
2022/12/05 08:49:39;;;;;;;32.00;16.15;;;;;;;-2.91;57.76;101302.69;1783706;79;21584;-38
2022/12/05 08:52:06;;;;;;;30.10;14.63;;;;;;;-2.84;57.58;101300.23;1783534;80;20979;-38
2022/12/05 08:54:33;;;;;;;27.62;15.85;;;;;;;-2.69;57.52;101305.16;1783458;80;21215;-39
2022/12/05 08:56:59;;;;;;;32.00;16.20;;;;;;;-2.52;57.25;101300.84;1783323;80;20929;-39
2022/12/05 08:59:26;;;;;;;29.98;16.52;;;;;;;-2.45;57.00;101300.73;1783491;80;21089;-39
2022/12/05 09:01:53;;;;;;;29.80;16.12;;;;;;;-2.41;56.90;101292.60;1783426;80;21040;-39
2022/12/05 09:04:20;;;;;;;29.95;16.00;;;;;;;-2.34;56.76;101291.48;1783520;80;21564;-39
2022/12/05 09:06:46;;;;;;;30.77;14.93;;;;;;;-2.26;56.24;101281.85;1783515;80;21125;-39
2022/12/05 09:09:13;;;;;;;27.90;15.18;;;;;;;-2.27;56.11;101278.08;1783361;80;20924;-39
2022/12/05 09:11:45;;;;;;;26.33;14.68;;;;;;;-2.27;56.02;101268.78;1783711;80;21565;-39
2022/12/05 09:14:12;;;;;;;27.85;13.72;;;;;;;-2.35;56.28;101265.95;1783726;80;21048;-39
2022/12/05 09:16:39;;;;;;;23.35;12.82;;;;;;;-2.30;56.44;101272.72;1783418;80;21083;-39
2022/12/05 09:19:26;;;;;;;18.15;10.30;;;;;;;-2.20;56.10;101268.99;1783649;80;21218;-39
2022/12/05 09:21:47;;;;;;;19.80;10.65;;;;;;;-2.18;55.58;101270.10;1782303;80;20967;-39
2022/12/05 09:24:14;;;;;;;18.02;10.43;;;;;;;-2.25;55.86;101271.52;1783560;79;21557;-39
2022/12/05 09:26:42;;;;;;;20.82;10.85;;;;;;;-2.29;54.96;101262.91;1783642;80;21660;-39
2022/12/05 09:29:10;;;;;;;16.73;9.98;;;;;;;-2.34;55.12;101260.94;1783570;80;21044;-39
2022/12/05 09:31:38;;;;;;;17.42;10.38;;;;;;;-2.30;55.66;101261.28;1783399;80;21212;-39
2022/12/05 09:34:04;;;;;;;15.45;8.33;;;;;;;-2.17;55.32;101255.75;1783524;80;20901;-39
2022/12/05 09:36:31;;;;;;;15.08;8.35;;;;;;;-2.11;55.19;101251.38;1783516;80;21620;-39
2022/12/05 09:39:01;;;;;;;18.50;9.90;;;;;;;-2.00;55.00;101254.57;1772439;80;21560;-39
2022/12/05 09:42:11;;;;;;;14.10;7.53;;;;;;;-1.86;55.51;101259.95;1758752;81;21035;-39
2022/12/05 09:45:23;;;;;;;11.65;7.72;;;;;;;-1.72;54.33;101244.57;1758626;81;21546;-38
2022/12/05 09:48:08;;;;;;;12.43;7.15;;;;;;;-1.57;53.36;101247.05;1758363;81;21041;-39
2022/12/05 09:50:51;;;;;;;12.65;7.08;;;;;;;-1.53;53.39;101238.89;1757506;81;20959;-39
2022/12/05 09:53:33;;;;;;;15.68;6.97;;;;;;;-1.42;53.23;101243.39;1724579;83;21065;-38
2022/12/05 09:56:25;;;;;;;14.07;7.30;;;;;;;-1.24;53.29;101238.42;1740097;82;21035;-39
2022/12/05 09:58:57;;;;;;;13.03;7.50;;;;;;;-1.03;52.98;101233.80;1739824;82;21268;-38
2022/12/05 10:01:47;;;;;;;13.32;7.42;;;;;;;-0.85;51.79;101236.78;1739649;82;20972;-39
2022/12/05 10:04:34;;;;;;;10.72;6.95;;;;;;;-0.79;51.79;101227.84;1739623;82;21008;-39
2022/12/05 10:07:28;;;;;;;11.35;7.15;;;;;;;-0.68;52.20;101225.66;1737092;82;21633;-39
2022/12/05 10:10:29;;;;;;;11.43;6.62;;;;;;;-0.57;52.13;101223.44;1739718;82;21016;-39
2022/12/05 10:13:21;;;;;;;11.12;6.78;;;;;;;-0.44;51.68;101221.79;1739814;82;23191;-39
2022/12/05 10:15:55;;;;;;;12.20;7.05;;;;;;;-0.34;51.34;101213.19;1740219;82;21518;-39
2022/12/05 10:18:45;;;;;;;18.35;7.17;;;;;;;-0.33;50.93;101216.63;1739910;82;21545;-39
2022/12/05 10:21:29;;;;;;;13.68;6.42;;;;;;;-0.34;50.88;101212.38;1739860;82;21048;-39
2022/12/05 10:24:03;;;;;;;12.25;6.58;;;;;;;-0.31;51.20;101207.88;1738903;82;21565;-39
2022/12/05 10:26:37;;;;;;;13.50;7.00;;;;;;;-0.25;50.47;101214.39;1742021;82;21190;-39
2022/12/05 10:29:28;;;;;;;13.45;7.50;;;;;;;-0.22;50.53;101215.75;1742294;82;20952;-39
2022/12/05 10:32:13;;;;;;;10.78;7.12;;;;;;;-0.22;50.61;101219.23;1742226;82;21023;-39
2022/12/05 10:34:41;;;;;;;15.43;7.10;;;;;;;-0.16;50.63;101214.27;1750662;81;21498;-39
2022/12/05 10:37:19;;;;;;;11.33;7.22;;;;;;;-0.19;50.18;101208.59;1742378;81;21502;-39
2022/12/05 10:39:47;;;;;;;15.45;7.10;;;;;;;-0.27;50.64;101213.00;1742598;81;21182;-39
2022/12/05 10:42:29;;;;;;;13.65;8.50;;;;;;;-0.32;50.85;101211.59;1742383;82;20893;-39
2022/12/05 10:45:01;;;;;;;13.18;8.20;;;;;;;-0.37;50.80;101206.98;1742363;81;21067;-39
2022/12/05 10:47:30;;;;;;;12.43;8.20;;;;;;;-0.55;51.28;101202.70;1742442;82;20971;-39
2022/12/05 10:50:03;;;;;;;15.75;8.03;;;;;;;-0.59;51.44;101190.92;1742776;82;21015;-39
2022/12/05 10:52:33;;;;;;;11.68;7.72;;;;;;;-0.65;51.72;101194.55;1742432;82;21211;-39
2022/12/05 10:55:03;;;;;;;16.73;9.18;;;;;;;-0.71;52.10;101197.34;1739742;82;21083;-39
2022/12/05 10:57:29;;;;;;;;;;;;;;;-0.69;52.23;101191.27;1745145;82;21529;-39
2022/12/05 10:59:57;;;;;;;19.67;10.13;;;;;;;-0.74;52.24;101191.18;1742693;82;20083;-39
2022/12/05 11:02:27;;;;;;;15.70;9.80;;;;;;;-0.92;52.44;101192.20;1742472;82;21040;-39
2022/12/05 11:04:53;;;;;;;;;;;;;;;-1.03;52.76;101187.73;1739665;82;21077;-39
2022/12/05 11:07:30;;;;;;;17.77;10.13;;;;;;;-1.12;53.19;101184.66;1742356;81;20110;-39
2022/12/05 11:09:58;;;;;;;18.48;10.93;;;;;;;-1.19;53.53;101175.17;1742356;82;20964;-39
2022/12/05 11:12:36;;;;;;;18.70;11.05;;;;;;;-1.16;53.70;101186.70;1742339;82;21486;-39
2022/12/05 11:15:25;;;;;;;18.57;10.18;;;;;;;-1.17;53.36;101176.57;1742485;82;21078;-39
2022/12/05 11:17:50;;;;;;;23.50;11.97;;;;;;;-1.26;53.41;101171.34;1741080;82;21154;-39
2022/12/05 11:20:22;;;;;;;23.47;12.47;;;;;;;-1.26;53.80;101166.55;1742582;82;21522;-39
2022/12/05 11:22:55;;;;;;;21.73;12.53;;;;;;;-1.28;53.97;101157.45;1742282;82;21212;-39
2022/12/05 11:25:29;;;;;;;22.50;12.68;;;;;;;-1.36;54.06;101160.50;1734585;82;20996;-39
2022/12/05 11:28:17;;;;;;;22.45;12.65;;;;;;;-1.34;54.19;101151.75;1728745;83;21048;-39
2022/12/05 11:31:07;;;;;;;22.42;12.55;;;;;;;-1.28;54.13;101144.67;1728595;82;21238;-39
2022/12/05 11:33:34;;;;;;;;;;;;;;;-1.23;53.97;101132.80;1728495;82;20973;-39
2022/12/05 11:36:20;;;;;;;25.52;13.13;;;;;;;-1.26;54.04;101128.77;1728731;82;20183;-39
2022/12/05 11:38:46;;;;;;;25.90;13.68;;;;;;;-1.19;54.33;101129.42;1728821;83;20997;-39
2022/12/05 11:41:36;;;;;;;28.23;14.70;;;;;;;-0.90;54.14;101116.88;1728873;83;20972;-39
2022/12/05 11:44:23;;;;;;;22.77;13.48;;;;;;;-0.61;53.29;101116.28;1722032;83;21189;-39
2022/12/05 11:47:19;;;;;;;32.73;14.75;;;;;;;-0.41;53.12;101111.80;1728783;83;21020;-39
2022/12/05 11:50:26;;;;;;;28.62;15.25;;;;;;;-0.28;52.51;101104.78;1728745;83;21024;-39
2022/12/05 11:53:22;;;;;;;28.55;15.45;;;;;;;-0.29;52.45;101103.20;1728321;82;21530;-39
2022/12/05 11:55:54;;;;;;;27.10;16.10;;;;;;;-0.12;52.84;101102.63;1728538;83;21377;-39
2022/12/05 11:58:50;;;;;;;27.35;15.75;;;;;;;0.16;52.31;101083.78;1728466;83;21128;-39
2022/12/05 12:01:31;;;;;;;26.93;16.27;;;;;;;0.41;51.44;101079.27;1707026;82;21068;-39
2022/12/05 12:04:35;;;;;;;26.85;15.30;;;;;;;0.36;51.05;101076.02;1728397;82;20945;-39
2022/12/05 12:07:38;;;;;;;29.02;16.00;;;;;;;0.04;51.24;101075.12;1728604;83;21322;-38
2022/12/05 12:10:20;;;;;;;28.95;15.85;;;;;;;-0.37;52.08;101069.76;1703782;83;21069;-39